createdAt,value
2023-01-10T00:00:22.170Z,99.99
2023-01-10T00:01:22.417Z,99.99
2023-01-10T00:02:22.519Z,99.99
2023-01-10T00:03:22.438Z,99.99
2023-01-10T00:04:22.278Z,99.99
2023-01-10T00:05:43.950Z,99.99
2023-01-10T00:06:22.244Z,99.99
2023-01-10T00:07:22.509Z,99.99
2023-01-10T00:08:22.260Z,99.99
2023-01-10T00:09:22.035Z,99.99
2023-01-10T00:10:22.284Z,99.99
2023-01-10T00:11:22.049Z,99.99
2023-01-10T00:12:22.273Z,99.99
2023-01-10T00:13:23.467Z,99.99
2023-01-10T00:14:22.259Z,99.99
2023-01-10T00:15:43.544Z,99.99
2023-01-10T00:16:23.068Z,99.99
2023-01-10T00:17:22.057Z,99.99
2023-01-10T00:18:22.310Z,99.99
2023-01-10T00:19:22.070Z,99.80
2023-01-10T00:20:22.320Z,99.91
2023-01-10T00:21:22.075Z,99.99
2023-01-10T00:22:22.317Z,99.99
2023-01-10T00:23:22.062Z,99.99
2023-01-10T00:24:22.310Z,99.99
2023-01-10T00:25:43.518Z,99.99
2023-01-10T00:26:21.842Z,99.99
2023-01-10T00:27:24.103Z,99.99
2023-01-10T00:28:21.861Z,99.99
2023-01-10T00:29:22.110Z,99.99
2023-01-10T00:30:21.869Z,99.99
2023-01-10T00:31:22.198Z,99.99
2023-01-10T00:32:21.869Z,99.99
2023-01-10T00:33:22.137Z,99.99
2023-01-10T00:34:21.876Z,99.99
2023-01-10T00:35:43.608Z,99.99
2023-01-10T00:36:21.889Z,99.99
2023-01-10T00:37:23.599Z,99.99
2023-01-10T00:38:21.903Z,99.99
2023-01-10T00:39:22.165Z,99.99
2023-01-10T00:40:21.931Z,99.99
2023-01-10T00:41:22.164Z,99.99
2023-01-10T00:42:21.911Z,99.99
2023-01-10T00:43:22.166Z,99.99
2023-01-10T00:44:21.895Z,99.99
2023-01-10T00:45:43.619Z,99.99
2023-01-10T00:46:21.959Z,99.99
2023-01-10T00:47:21.700Z,99.99
2023-01-10T00:48:21.929Z,99.99
2023-01-10T00:49:21.683Z,99.99
2023-01-10T00:50:21.938Z,99.99
2023-01-10T00:51:21.703Z,99.99
2023-01-10T00:52:21.943Z,99.99
2023-01-10T00:53:22.397Z,99.99
2023-01-10T00:54:21.924Z,99.99
2023-01-10T00:55:43.221Z,99.99
2023-01-10T00:56:22.001Z,99.99
2023-01-10T00:57:21.758Z,99.99
2023-01-10T00:58:21.983Z,99.99
2023-01-10T00:59:21.756Z,99.99
2023-01-10T01:00:22.006Z,99.99
2023-01-10T01:01:21.840Z,99.99
2023-01-10T01:02:21.750Z,99.99
2023-01-10T01:03:21.767Z,99.99
2023-01-10T01:04:21.496Z,99.99
2023-01-10T01:05:42.470Z,99.99
2023-01-10T01:06:21.578Z,99.99
2023-01-10T01:07:21.839Z,99.99
2023-01-10T01:08:21.596Z,99.99
2023-01-10T01:09:21.907Z,99.99
2023-01-10T01:10:23.097Z,99.99
2023-01-10T01:11:21.959Z,99.99
2023-01-10T01:12:21.669Z,99.99
2023-01-10T01:13:22.898Z,99.99
2023-01-10T01:14:21.721Z,99.99
2023-01-10T01:15:43.061Z,99.99
2023-01-10T01:16:21.750Z,99.99
2023-01-10T01:17:22.104Z,99.99
2023-01-10T01:18:23.238Z,99.99
2023-01-10T01:19:21.549Z,99.99
2023-01-10T01:20:21.814Z,99.99
2023-01-10T01:21:21.590Z,99.99
2023-01-10T01:22:21.317Z,99.99
2023-01-10T01:23:22.284Z,99.99
2023-01-10T01:24:21.344Z,99.99
2023-01-10T01:25:43.092Z,99.99
2023-01-10T01:26:21.368Z,99.99
2023-01-10T01:27:21.642Z,99.99
2023-01-10T01:28:21.373Z,99.99
2023-01-10T01:29:23.799Z,99.99
2023-01-10T01:30:22.856Z,99.99
2023-01-10T01:31:21.691Z,99.99
2023-01-10T01:32:21.581Z,99.99
2023-01-10T01:33:23.125Z,99.99
2023-01-10T01:34:21.432Z,99.99
2023-01-10T01:35:42.139Z,99.99
2023-01-10T01:36:21.594Z,99.99
2023-01-10T01:37:21.333Z,99.99
2023-01-10T01:38:21.620Z,99.99
2023-01-10T01:39:21.349Z,99.99
2023-01-10T01:40:21.152Z,99.99
2023-01-10T01:41:21.365Z,99.99
2023-01-10T01:42:21.200Z,99.99
2023-01-10T01:43:21.448Z,99.99
2023-01-10T01:44:21.200Z,99.99
2023-01-10T01:45:42.944Z,99.99
2023-01-10T01:46:21.294Z,99.99
2023-01-10T01:47:21.470Z,99.99
2023-01-10T01:48:21.229Z,99.99
2023-01-10T01:49:21.473Z,99.99
2023-01-10T01:50:21.230Z,99.99
2023-01-10T01:51:21.482Z,99.99
2023-01-10T01:52:21.238Z,99.99
2023-01-10T01:53:21.501Z,99.99
2023-01-10T01:54:21.247Z,99.99
2023-01-10T01:55:43.130Z,99.99
2023-01-10T01:56:22.758Z,99.99
2023-01-10T01:57:21.048Z,99.99
2023-01-10T01:58:22.275Z,99.99
2023-01-10T01:59:21.072Z,99.99
2023-01-10T02:00:21.354Z,99.99
2023-01-10T02:01:22.665Z,99.99
2023-01-10T02:02:21.546Z,99.99
2023-01-10T02:03:21.200Z,99.99
2023-01-10T02:04:22.373Z,99.99
2023-01-10T02:05:42.670Z,99.99
2023-01-10T02:06:20.959Z,99.91
2023-01-10T02:07:21.195Z,99.80
2023-01-10T02:08:22.417Z,99.70
2023-01-10T02:09:22.665Z,99.70
2023-01-10T02:10:20.964Z,99.70
2023-01-10T02:11:21.217Z,99.70
2023-01-10T02:12:20.983Z,99.70
2023-01-10T02:13:21.228Z,99.70
2023-01-10T02:14:20.966Z,99.70
2023-01-10T02:15:41.724Z,99.70
2023-01-10T02:16:21.083Z,99.80
2023-01-10T02:17:20.763Z,99.80
2023-01-10T02:18:22.447Z,99.70
2023-01-10T02:19:20.776Z,99.76
2023-01-10T02:20:21.025Z,99.76
2023-01-10T02:21:21.479Z,99.65
2023-01-10T02:22:21.037Z,99.44
2023-01-10T02:23:20.808Z,99.34
2023-01-10T02:24:22.513Z,99.34
2023-01-10T02:25:42.341Z,99.14
2023-01-10T02:26:22.555Z,99.14
2023-01-10T02:27:21.131Z,99.18
2023-01-10T02:28:21.108Z,99.18
2023-01-10T02:29:20.881Z,99.29
2023-01-10T02:30:20.621Z,99.29
2023-01-10T02:31:20.960Z,99.29
2023-01-10T02:32:35.901Z,99.29
2023-01-10T02:33:21.895Z,99.29
2023-01-10T02:34:20.643Z,99.39
2023-01-10T02:35:42.409Z,99.39
2023-01-10T02:36:21.146Z,99.39
2023-01-10T02:37:20.960Z,99.39
2023-01-10T02:38:20.681Z,99.39
2023-01-10T02:39:22.391Z,99.39
2023-01-10T02:40:20.672Z,99.39
2023-01-10T02:41:20.930Z,99.39
2023-01-10T02:42:22.614Z,99.29
2023-01-10T02:43:21.622Z,99.33
2023-01-10T02:44:20.694Z,99.43
2023-01-10T02:45:42.445Z,99.43
2023-01-10T02:46:20.785Z,99.43
2023-01-10T02:47:20.580Z,99.43
2023-01-10T02:48:22.194Z,99.43
2023-01-10T02:49:20.531Z,99.54
2023-01-10T02:50:20.786Z,99.64
2023-01-10T02:51:21.987Z,99.64
2023-01-10T02:52:21.550Z,99.74
2023-01-10T02:53:20.525Z,99.74
2023-01-10T02:54:22.240Z,99.74
2023-01-10T02:55:41.189Z,99.74
2023-01-10T02:56:20.384Z,99.85
2023-01-10T02:57:22.100Z,99.74
2023-01-10T02:58:21.110Z,99.74
2023-01-10T02:59:20.664Z,99.74
2023-01-10T03:00:21.851Z,99.85
2023-01-10T03:01:22.203Z,99.85
2023-01-10T03:02:21.863Z,99.85
2023-01-10T03:03:21.586Z,99.85
2023-01-10T03:04:20.420Z,99.74
2023-01-10T03:05:40.782Z,99.64
2023-01-10T03:06:21.180Z,99.64
2023-01-10T03:07:21.651Z,99.64
2023-01-10T03:08:20.478Z,99.74
2023-01-10T03:09:20.245Z,99.74
2023-01-10T03:10:20.512Z,99.64
2023-01-10T03:11:20.278Z,99.79
2023-01-10T03:12:21.952Z,99.90
2023-01-10T03:13:20.288Z,99.90
2023-01-10T03:14:20.551Z,99.90
2023-01-10T03:15:41.819Z,99.90
2023-01-10T03:16:20.669Z,99.90
2023-01-10T03:17:20.423Z,99.90
2023-01-10T03:18:21.617Z,99.90
2023-01-10T03:19:20.466Z,99.99
2023-01-10T03:20:20.261Z,99.90
2023-01-10T03:21:20.563Z,99.99
2023-01-10T03:22:20.346Z,99.99
2023-01-10T03:23:22.058Z,99.99
2023-01-10T03:24:20.416Z,99.99
2023-01-10T03:25:41.681Z,99.99
2023-01-10T03:26:20.537Z,99.99
2023-01-10T03:27:20.329Z,99.99
2023-01-10T03:28:20.124Z,99.99
2023-01-10T03:29:20.397Z,99.99
2023-01-10T03:30:20.204Z,99.99
2023-01-10T03:31:21.470Z,99.99
2023-01-10T03:32:20.276Z,99.99
2023-01-10T03:33:21.978Z,99.99
2023-01-10T03:34:20.337Z,99.99
2023-01-10T03:35:40.198Z,99.99
2023-01-10T03:36:21.878Z,99.95
2023-01-10T03:37:20.262Z,99.95
2023-01-10T03:38:20.052Z,99.95
2023-01-10T03:39:20.598Z,99.95
2023-01-10T03:40:20.198Z,99.95
2023-01-10T03:41:22.351Z,99.85
2023-01-10T03:42:20.328Z,99.95
2023-01-10T03:43:19.999Z,99.95
2023-01-10T03:44:20.389Z,99.95
2023-01-10T03:45:41.616Z,99.99
2023-01-10T03:46:19.994Z,99.95
2023-01-10T03:47:20.604Z,99.95
2023-01-10T03:48:21.494Z,99.95
2023-01-10T03:49:20.341Z,99.99
2023-01-10T03:50:20.203Z,99.95
2023-01-10T03:51:19.967Z,99.99
2023-01-10T03:52:20.714Z,99.99
2023-01-10T03:53:21.410Z,99.99
2023-01-10T03:54:20.322Z,99.99
2023-01-10T03:55:40.362Z,99.99
2023-01-10T03:56:21.347Z,99.99
2023-01-10T03:57:20.151Z,99.99
2023-01-10T03:58:21.292Z,99.99
2023-01-10T03:59:21.625Z,99.99
2023-01-10T04:00:21.437Z,99.99
2023-01-10T04:01:20.268Z,99.99
2023-01-10T04:02:20.616Z,99.99
2023-01-10T04:03:21.172Z,99.99
2023-01-10T04:04:20.763Z,99.91
2023-01-10T04:05:41.271Z,99.91
2023-01-10T04:06:21.518Z,99.80
2023-01-10T04:07:19.823Z,99.80
2023-01-10T04:08:22.028Z,99.80
2023-01-10T04:09:21.664Z,99.70
2023-01-10T04:10:20.121Z,99.70
2023-01-10T04:11:20.561Z,99.60
2023-01-10T04:12:20.594Z,99.70
2023-01-10T04:13:20.807Z,99.70
2023-01-10T04:14:21.066Z,99.60
2023-01-10T04:15:41.379Z,99.60
2023-01-10T04:16:21.224Z,99.64
2023-01-10T04:17:19.965Z,99.64
2023-01-10T04:18:21.154Z,99.60
2023-01-10T04:19:21.404Z,99.74
2023-01-10T04:20:20.032Z,99.74
2023-01-10T04:21:21.933Z,99.80
2023-01-10T04:22:20.168Z,99.70
2023-01-10T04:23:20.492Z,99.70
2023-01-10T04:24:21.771Z,99.80
2023-01-10T04:25:41.071Z,99.91
2023-01-10T04:26:21.319Z,99.91
2023-01-10T04:27:23.062Z,99.99
2023-01-10T04:28:24.425Z,99.99
2023-01-10T04:29:21.083Z,99.99
2023-01-10T04:30:21.366Z,99.99
2023-01-10T04:31:21.109Z,99.99
2023-01-10T04:32:19.941Z,99.91
2023-01-10T04:33:20.231Z,99.65
2023-01-10T04:34:20.891Z,99.44
2023-01-10T04:35:41.201Z,99.34
2023-01-10T04:36:20.962Z,99.24
2023-01-10T04:37:21.203Z,99.24
2023-01-10T04:38:20.475Z,99.14
2023-01-10T04:39:20.237Z,99.14
2023-01-10T04:40:19.634Z,99.14
2023-01-10T04:41:21.225Z,99.14
2023-01-10T04:42:21.004Z,99.14
2023-01-10T04:43:19.303Z,99.04
2023-01-10T04:44:19.651Z,98.83
2023-01-10T04:45:40.293Z,98.72
2023-01-10T04:46:19.717Z,98.72
2023-01-10T04:47:19.437Z,98.72
2023-01-10T04:48:21.112Z,98.72
2023-01-10T04:49:19.487Z,98.62
2023-01-10T04:50:19.970Z,98.52
2023-01-10T04:51:20.257Z,98.52
2023-01-10T04:52:20.220Z,98.52
2023-01-10T04:53:20.910Z,98.62
2023-01-10T04:54:19.224Z,98.62
2023-01-10T04:55:40.972Z,98.72
2023-01-10T04:56:19.283Z,98.72
2023-01-10T04:57:20.948Z,98.72
2023-01-10T04:58:20.730Z,98.83
2023-01-10T04:59:20.975Z,98.83
2023-01-10T05:00:19.330Z,98.83
2023-01-10T05:01:21.087Z,98.72
2023-01-10T05:02:19.429Z,98.72
2023-01-10T05:03:19.645Z,98.72
2023-01-10T05:04:21.079Z,98.62
2023-01-10T05:05:40.554Z,98.52
2023-01-10T05:06:19.367Z,98.41
2023-01-10T05:07:20.540Z,98.41
2023-01-10T05:08:20.818Z,98.31
2023-01-10T05:09:20.547Z,98.21
2023-01-10T05:10:20.818Z,98.31
2023-01-10T05:11:19.394Z,98.41
2023-01-10T05:12:20.327Z,98.41
2023-01-10T05:13:19.129Z,98.41
2023-01-10T05:14:20.834Z,98.41
2023-01-10T05:15:40.630Z,98.41
2023-01-10T05:16:19.457Z,98.41
2023-01-10T05:17:19.213Z,98.31
2023-01-10T05:18:18.979Z,98.41
2023-01-10T05:19:19.337Z,98.52
2023-01-10T05:20:19.607Z,98.41
2023-01-10T05:21:20.713Z,98.52
2023-01-10T05:22:20.491Z,98.41
2023-01-10T05:23:19.311Z,98.41
2023-01-10T05:24:19.986Z,98.41
2023-01-10T05:25:39.813Z,98.31
2023-01-10T05:26:19.311Z,98.31
2023-01-10T05:27:20.779Z,98.10
2023-01-10T05:28:20.041Z,98.00
2023-01-10T05:29:20.357Z,98.10
2023-01-10T05:30:19.150Z,98.00
2023-01-10T05:31:20.469Z,97.89
2023-01-10T05:32:19.210Z,97.79
2023-01-10T05:33:18.955Z,97.79
2023-01-10T05:34:19.205Z,97.79
2023-01-10T05:35:40.432Z,97.79
2023-01-10T05:36:19.810Z,97.79
2023-01-10T05:37:19.779Z,98.00
2023-01-10T05:38:20.697Z,97.89
2023-01-10T05:39:19.026Z,97.89
2023-01-10T05:40:18.757Z,97.89
2023-01-10T05:41:19.121Z,98.00
2023-01-10T05:42:18.853Z,97.79
2023-01-10T05:43:19.131Z,97.79
2023-01-10T05:44:18.869Z,97.89
2023-01-10T05:45:40.180Z,97.79
2023-01-10T05:46:18.970Z,97.79
2023-01-10T05:47:18.738Z,97.79
2023-01-10T05:48:19.665Z,97.79
2023-01-10T05:49:18.777Z,97.79
2023-01-10T05:50:19.168Z,97.89
2023-01-10T05:51:18.746Z,97.89
2023-01-10T05:52:18.996Z,97.89
2023-01-10T05:53:18.769Z,97.59
2023-01-10T05:54:19.023Z,97.59
2023-01-10T05:55:39.793Z,97.59
2023-01-10T05:56:19.051Z,97.59
2023-01-10T05:57:18.836Z,97.59
2023-01-10T05:58:18.584Z,97.59
2023-01-10T05:59:28.041Z,97.59
2023-01-10T06:00:21.077Z,97.59
2023-01-10T06:01:19.005Z,97.59
2023-01-10T06:02:19.705Z,97.69
2023-01-10T06:03:19.020Z,97.79
2023-01-10T06:04:19.581Z,97.79
2023-01-10T06:05:40.388Z,97.79
2023-01-10T06:06:20.160Z,97.79
2023-01-10T06:07:18.963Z,97.79
2023-01-10T06:08:18.706Z,97.79
2023-01-10T06:09:18.967Z,97.49
2023-01-10T06:10:19.137Z,97.53
2023-01-10T06:11:18.500Z,97.49
2023-01-10T06:12:20.677Z,97.59
2023-01-10T06:13:19.465Z,97.59
2023-01-10T06:14:20.717Z,97.59
2023-01-10T06:15:38.596Z,97.69
2023-01-10T06:16:20.750Z,97.69
2023-01-10T06:17:18.557Z,97.69
2023-01-10T06:18:18.784Z,97.69
2023-01-10T06:19:19.466Z,97.69
2023-01-10T06:20:18.812Z,97.79
2023-01-10T06:21:18.447Z,97.89
2023-01-10T06:22:19.281Z,97.79
2023-01-10T06:23:18.595Z,97.69
2023-01-10T06:24:18.836Z,97.59
2023-01-10T06:25:38.663Z,97.42
2023-01-10T06:26:20.339Z,97.28
2023-01-10T06:27:18.628Z,97.42
2023-01-10T06:28:18.410Z,97.42
2023-01-10T06:29:18.638Z,97.42
2023-01-10T06:30:19.357Z,97.42
2023-01-10T06:31:20.370Z,97.32
2023-01-10T06:32:18.393Z,97.32
2023-01-10T06:33:18.631Z,97.22
2023-01-10T06:34:18.407Z,97.32
2023-01-10T06:35:38.651Z,97.53
2023-01-10T06:36:18.391Z,97.53
2023-01-10T06:37:20.221Z,97.47
2023-01-10T06:38:18.412Z,97.47
2023-01-10T06:39:18.663Z,97.57
2023-01-10T06:40:18.407Z,97.67
2023-01-10T06:41:18.655Z,97.67
2023-01-10T06:42:18.411Z,97.57
2023-01-10T06:43:18.133Z,97.57
2023-01-10T06:44:18.412Z,97.47
2023-01-10T06:45:38.227Z,97.47
2023-01-10T06:46:18.513Z,97.47
2023-01-10T06:47:18.173Z,97.57
2023-01-10T06:48:18.440Z,97.57
2023-01-10T06:49:19.584Z,97.83
2023-01-10T06:50:18.452Z,97.83
2023-01-10T06:51:20.150Z,97.83
2023-01-10T06:52:18.470Z,97.93
2023-01-10T06:53:18.225Z,97.93
2023-01-10T06:54:18.462Z,98.03
2023-01-10T06:55:38.214Z,98.03
2023-01-10T06:56:18.463Z,98.03
2023-01-10T06:57:18.835Z,98.13
2023-01-10T06:58:19.335Z,98.13
2023-01-10T06:59:18.438Z,98.24
2023-01-10T07:00:18.003Z,98.24
2023-01-10T07:01:18.442Z,98.24
2023-01-10T07:02:18.039Z,98.24
2023-01-10T07:03:18.244Z,98.24
2023-01-10T07:04:18.054Z,98.28
2023-01-10T07:05:38.277Z,98.13
2023-01-10T07:06:19.147Z,98.13
2023-01-10T07:07:19.805Z,98.18
2023-01-10T07:08:19.612Z,98.28
2023-01-10T07:09:18.840Z,98.39
2023-01-10T07:10:19.715Z,98.39
2023-01-10T07:11:19.552Z,98.49
2023-01-10T07:12:19.402Z,98.49
2023-01-10T07:13:19.727Z,98.39
2023-01-10T07:14:19.523Z,98.49
2023-01-10T07:15:38.349Z,98.49
2023-01-10T07:16:19.652Z,98.49
2023-01-10T07:17:17.954Z,98.49
2023-01-10T07:18:18.349Z,98.49
2023-01-10T07:19:19.522Z,98.60
2023-01-10T07:20:19.404Z,98.60
2023-01-10T07:21:19.368Z,98.49
2023-01-10T07:22:19.546Z,98.49
2023-01-10T07:23:19.325Z,98.49
2023-01-10T07:24:19.647Z,98.49
2023-01-10T07:25:37.960Z,98.60
2023-01-10T07:26:19.184Z,98.70
2023-01-10T07:27:18.872Z,98.70
2023-01-10T07:28:17.860Z,98.70
2023-01-10T07:29:18.110Z,98.80
2023-01-10T07:30:17.875Z,98.70
2023-01-10T07:31:18.162Z,98.60
2023-01-10T07:32:17.866Z,98.60
2023-01-10T07:33:18.152Z,98.60
2023-01-10T07:34:17.879Z,98.60
2023-01-10T07:35:39.686Z,98.49
2023-01-10T07:36:17.246Z,98.49
2023-01-10T07:37:17.110Z,98.39
2023-01-10T07:38:17.856Z,98.49
2023-01-10T07:39:18.119Z,98.60
2023-01-10T07:40:17.846Z,98.49
2023-01-10T07:41:17.599Z,98.54
2023-01-10T07:42:17.829Z,98.54
2023-01-10T07:43:17.607Z,98.43
2023-01-10T07:44:17.832Z,98.43
2023-01-10T07:45:38.380Z,98.43
2023-01-10T07:46:18.060Z,98.43
2023-01-10T07:47:17.660Z,98.54
2023-01-10T07:48:17.909Z,98.64
2023-01-10T07:49:17.676Z,98.54
2023-01-10T07:50:18.185Z,98.43
2023-01-10T07:51:17.671Z,98.43
2023-01-10T07:52:17.903Z,98.54
2023-01-10T07:53:17.658Z,98.54
2023-01-10T07:54:17.892Z,98.54
2023-01-10T07:55:39.167Z,98.54
2023-01-10T07:56:17.432Z,98.54
2023-01-10T07:57:17.798Z,98.49
2023-01-10T07:58:17.455Z,98.49
2023-01-10T07:59:17.725Z,98.39
2023-01-10T08:00:18.980Z,98.28
2023-01-10T08:01:17.783Z,98.28
2023-01-10T08:02:17.527Z,98.18
2023-01-10T08:03:19.364Z,98.28
2023-01-10T08:04:17.468Z,98.18
2023-01-10T08:05:39.252Z,98.18
2023-01-10T08:06:17.521Z,98.08
2023-01-10T08:07:18.787Z,97.97
2023-01-10T08:08:17.524Z,97.97
2023-01-10T08:09:17.806Z,97.97
2023-01-10T08:10:17.529Z,97.83
2023-01-10T08:11:17.300Z,97.72
2023-01-10T08:12:17.541Z,97.52
2023-01-10T08:13:19.075Z,97.41
2023-01-10T08:14:17.563Z,97.41
2023-01-10T08:15:38.445Z,97.20
2023-01-10T08:16:17.703Z,97.00
2023-01-10T08:17:17.404Z,96.75
2023-01-10T08:18:17.647Z,96.75
2023-01-10T08:19:17.408Z,96.64
2023-01-10T08:20:17.659Z,96.54
2023-01-10T08:21:17.421Z,96.39
2023-01-10T08:22:17.649Z,96.08
2023-01-10T08:23:17.452Z,95.98
2023-01-10T08:24:17.209Z,95.77
2023-01-10T08:25:39.690Z,95.67
2023-01-10T08:26:17.287Z,95.52
2023-01-10T08:27:17.549Z,95.21
2023-01-10T08:28:17.319Z,95.21
2023-01-10T08:29:17.567Z,95.10
2023-01-10T08:30:17.298Z,95.00
2023-01-10T08:31:17.646Z,94.85
2023-01-10T08:32:17.311Z,94.65
2023-01-10T08:33:17.590Z,94.34
2023-01-10T08:34:17.305Z,93.82
2023-01-10T08:35:37.578Z,93.57
2023-01-10T08:36:17.474Z,93.68
2023-01-10T08:37:18.731Z,93.78
2023-01-10T08:38:17.895Z,93.37
2023-01-10T08:39:18.912Z,93.26
2023-01-10T08:40:18.197Z,92.85
2023-01-10T08:41:18.510Z,92.70
2023-01-10T08:42:18.847Z,92.60
2023-01-10T08:43:18.630Z,92.19
2023-01-10T08:44:17.904Z,91.67
2023-01-10T08:45:37.351Z,91.63
2023-01-10T08:46:18.598Z,91.63
2023-01-10T08:47:18.938Z,91.17
2023-01-10T08:48:18.722Z,91.03
2023-01-10T08:49:18.021Z,89.44
2023-01-10T08:50:17.917Z,88.57
2023-01-10T08:51:17.340Z,87.65
2023-01-10T08:52:17.231Z,87.24
2023-01-10T08:53:17.003Z,87.19
2023-01-10T08:54:18.750Z,87.30
2023-01-10T08:55:37.077Z,87.03
2023-01-10T08:56:18.805Z,86.93
2023-01-10T08:57:18.607Z,87.03
2023-01-10T08:58:18.368Z,87.24
2023-01-10T08:59:18.763Z,87.75
2023-01-10T09:00:18.528Z,87.65
2023-01-10T09:01:16.999Z,87.85
2023-01-10T09:02:18.162Z,87.54
2023-01-10T09:03:18.526Z,87.96
2023-01-10T09:04:18.316Z,87.85
2023-01-10T09:05:37.142Z,87.79
2023-01-10T09:06:18.316Z,87.85
2023-01-10T09:07:17.446Z,88.17
2023-01-10T09:08:17.751Z,88.26
2023-01-10T09:09:18.417Z,87.92
2023-01-10T09:10:18.251Z,87.81
2023-01-10T09:11:18.604Z,87.30
2023-01-10T09:12:17.882Z,86.79
2023-01-10T09:13:17.444Z,86.54
2023-01-10T09:14:17.131Z,86.43
2023-01-10T09:15:36.891Z,86.23
2023-01-10T09:16:18.672Z,86.23
2023-01-10T09:17:18.506Z,86.13
2023-01-10T09:18:20.037Z,86.47
2023-01-10T09:19:17.444Z,86.79
2023-01-10T09:20:18.457Z,86.99
2023-01-10T09:21:18.251Z,87.19
2023-01-10T09:22:17.914Z,87.60
2023-01-10T09:23:18.443Z,87.96
2023-01-10T09:24:18.286Z,88.17
2023-01-10T09:25:37.122Z,88.62
2023-01-10T09:26:18.407Z,88.51
2023-01-10T09:27:18.230Z,88.62
2023-01-10T09:28:18.003Z,88.92
2023-01-10T09:29:18.317Z,89.17
2023-01-10T09:30:17.338Z,89.58
2023-01-10T09:31:17.509Z,90.00
2023-01-10T09:32:18.307Z,90.31
2023-01-10T09:33:18.171Z,90.20
2023-01-10T09:34:17.948Z,90.51
2023-01-10T09:35:36.770Z,90.35
2023-01-10T09:36:17.503Z,90.25
2023-01-10T09:37:17.443Z,90.45
2023-01-10T09:38:17.649Z,90.66
2023-01-10T09:39:17.997Z,90.55
2023-01-10T09:40:17.536Z,90.55
2023-01-10T09:41:18.166Z,90.66
2023-01-10T09:42:18.007Z,90.86
2023-01-10T09:43:18.297Z,90.76
2023-01-10T09:44:18.095Z,90.97
2023-01-10T09:45:36.416Z,90.86
2023-01-10T09:46:18.220Z,91.07
2023-01-10T09:47:23.008Z,90.97
2023-01-10T09:48:18.488Z,90.97
2023-01-10T09:49:18.194Z,91.03
2023-01-10T09:50:18.010Z,90.92
2023-01-10T09:51:17.791Z,90.41
2023-01-10T09:52:18.094Z,90.00
2023-01-10T09:53:16.471Z,90.20
2023-01-10T09:54:16.851Z,90.20
2023-01-10T09:55:36.604Z,89.89
2023-01-10T09:56:17.846Z,90.00
2023-01-10T09:57:18.127Z,90.06
2023-01-10T09:58:18.001Z,89.85
2023-01-10T09:59:16.384Z,89.95
2023-01-10T10:00:16.971Z,89.95
2023-01-10T10:01:17.903Z,89.23
2023-01-10T10:02:17.749Z,88.99
2023-01-10T10:03:17.659Z,89.19
2023-01-10T10:04:16.767Z,89.09
2023-01-10T10:05:36.274Z,88.74
2023-01-10T10:06:17.992Z,88.74
2023-01-10T10:07:17.776Z,88.23
2023-01-10T10:08:17.296Z,88.23
2023-01-10T10:09:17.874Z,88.18
2023-01-10T10:10:16.373Z,87.98
2023-01-10T10:11:17.003Z,87.77
2023-01-10T10:12:17.949Z,87.67
2023-01-10T10:13:26.884Z,87.57
2023-01-10T10:14:18.600Z,87.57
2023-01-10T10:15:36.403Z,87.67
2023-01-10T10:16:16.998Z,87.67
2023-01-10T10:17:16.981Z,87.15
2023-01-10T10:18:17.020Z,87.46
2023-01-10T10:19:17.691Z,87.26
2023-01-10T10:20:17.070Z,86.95
2023-01-10T10:21:17.783Z,86.88
2023-01-10T10:22:19.823Z,86.88
2023-01-10T10:23:16.993Z,87.51
2023-01-10T10:24:17.696Z,87.60
2023-01-10T10:25:36.001Z,88.12
2023-01-10T10:26:17.714Z,88.33
2023-01-10T10:27:17.051Z,87.81
2023-01-10T10:28:16.987Z,87.92
2023-01-10T10:29:16.990Z,88.23
2023-01-10T10:30:17.557Z,88.64
2023-01-10T10:31:16.881Z,88.33
2023-01-10T10:32:17.657Z,88.33
2023-01-10T10:33:16.105Z,88.33
2023-01-10T10:34:17.004Z,88.23
2023-01-10T10:35:36.180Z,88.33
2023-01-10T10:36:17.403Z,88.64
2023-01-10T10:37:17.698Z,88.84
2023-01-10T10:38:16.987Z,89.15
2023-01-10T10:39:17.319Z,89.15
2023-01-10T10:40:17.086Z,89.36
2023-01-10T10:41:16.500Z,89.25
2023-01-10T10:42:17.355Z,89.36
2023-01-10T10:43:17.709Z,88.84
2023-01-10T10:44:16.991Z,89.15
2023-01-10T10:45:35.945Z,89.15
2023-01-10T10:46:17.594Z,88.95
2023-01-10T10:47:16.485Z,88.53
2023-01-10T10:48:17.196Z,88.43
2023-01-10T10:49:18.778Z,88.84
2023-01-10T10:50:17.372Z,88.53
2023-01-10T10:51:17.234Z,88.74
2023-01-10T10:52:17.542Z,89.05
2023-01-10T10:53:16.523Z,89.15
2023-01-10T10:54:17.129Z,89.25
2023-01-10T10:55:35.979Z,88.70
2023-01-10T10:56:17.173Z,88.29
2023-01-10T10:57:16.708Z,88.59
2023-01-10T10:58:17.374Z,88.90
2023-01-10T10:59:16.514Z,88.49
2023-01-10T11:00:17.509Z,88.70
2023-01-10T11:01:16.932Z,88.08
2023-01-10T11:02:16.591Z,88.08
2023-01-10T11:03:17.406Z,88.08
2023-01-10T11:04:17.222Z,87.87
2023-01-10T11:05:36.130Z,88.04
2023-01-10T11:06:17.383Z,88.04
2023-01-10T11:07:17.178Z,87.73
2023-01-10T11:08:16.482Z,87.84
2023-01-10T11:09:16.515Z,88.04
2023-01-10T11:10:17.083Z,87.63
2023-01-10T11:11:16.504Z,87.42
2023-01-10T11:12:17.271Z,87.94
2023-01-10T11:13:16.641Z,87.94
2023-01-10T11:14:16.926Z,87.94
2023-01-10T11:15:35.756Z,87.52
2023-01-10T11:16:16.991Z,87.73
2023-01-10T11:17:15.857Z,87.67
2023-01-10T11:18:16.587Z,88.08
2023-01-10T11:19:16.902Z,88.39
2023-01-10T11:20:17.235Z,88.45
2023-01-10T11:21:17.044Z,88.56
2023-01-10T11:22:16.896Z,88.18
2023-01-10T11:23:16.519Z,88.18
2023-01-10T11:24:16.513Z,88.45
2023-01-10T11:25:35.847Z,88.24
2023-01-10T11:26:17.074Z,88.35
2023-01-10T11:27:15.636Z,88.45
2023-01-10T11:28:16.767Z,88.24
2023-01-10T11:29:16.010Z,88.04
2023-01-10T11:30:16.924Z,88.08
2023-01-10T11:31:17.340Z,87.98
2023-01-10T11:32:17.084Z,88.18
2023-01-10T11:33:16.915Z,88.39
2023-01-10T11:34:16.706Z,88.49
2023-01-10T11:35:35.530Z,88.29
2023-01-10T11:36:16.754Z,88.18
2023-01-10T11:37:16.557Z,88.18
2023-01-10T11:38:16.896Z,88.49
2023-01-10T11:39:16.220Z,88.39
2023-01-10T11:40:16.237Z,88.39
2023-01-10T11:41:16.016Z,87.77
2023-01-10T11:42:16.607Z,87.98
2023-01-10T11:43:15.536Z,88.08
2023-01-10T11:44:16.846Z,88.08
2023-01-10T11:45:35.190Z,87.87
2023-01-10T11:46:16.436Z,87.98
2023-01-10T11:47:16.035Z,87.98
2023-01-10T11:48:18.516Z,87.98
2023-01-10T11:49:16.809Z,88.18
2023-01-10T11:50:16.649Z,88.49
2023-01-10T11:51:16.145Z,88.39
2023-01-10T11:52:16.807Z,87.98
2023-01-10T11:53:16.102Z,88.08
2023-01-10T11:54:16.974Z,88.49
2023-01-10T11:55:35.288Z,88.49
2023-01-10T11:56:16.531Z,87.98
2023-01-10T11:57:16.827Z,88.08
2023-01-10T11:58:15.315Z,88.70
2023-01-10T11:59:15.749Z,88.29
2023-01-10T12:00:16.911Z,88.29
2023-01-10T12:01:16.801Z,88.39
2023-01-10T12:02:16.583Z,88.18
2023-01-10T12:03:16.886Z,87.98
2023-01-10T12:04:16.039Z,87.87
2023-01-10T12:05:35.064Z,88.39
2023-01-10T12:06:16.787Z,88.18
2023-01-10T12:07:16.605Z,88.18
2023-01-10T12:08:15.930Z,88.39
2023-01-10T12:09:16.758Z,87.98
2023-01-10T12:10:15.788Z,88.49
2023-01-10T12:11:15.531Z,88.18
2023-01-10T12:12:16.667Z,88.29
2023-01-10T12:13:15.320Z,87.77
2023-01-10T12:14:16.346Z,88.29
2023-01-10T12:15:35.170Z,87.67
2023-01-10T12:16:16.489Z,87.73
2023-01-10T12:17:15.558Z,87.73
2023-01-10T12:18:16.623Z,87.73
2023-01-10T12:19:16.430Z,87.94
2023-01-10T12:20:16.726Z,88.04
2023-01-10T12:21:16.518Z,87.94
2023-01-10T12:22:16.326Z,87.84
2023-01-10T12:23:15.556Z,87.52
2023-01-10T12:24:16.549Z,88.14
2023-01-10T12:25:35.413Z,87.94
2023-01-10T12:26:16.611Z,87.94
2023-01-10T12:27:16.416Z,87.42
2023-01-10T12:28:16.198Z,87.52
2023-01-10T12:29:15.159Z,87.22
2023-01-10T12:30:15.930Z,87.22
2023-01-10T12:31:16.206Z,87.84
2023-01-10T12:32:17.560Z,87.73
2023-01-10T12:33:14.835Z,87.42
2023-01-10T12:34:15.087Z,87.94
2023-01-10T12:35:34.855Z,87.52
2023-01-10T12:36:14.601Z,87.01
2023-01-10T12:37:14.863Z,87.01
2023-01-10T12:38:14.600Z,87.22
2023-01-10T12:39:14.857Z,87.52
2023-01-10T12:40:15.317Z,87.42
2023-01-10T12:41:15.558Z,87.12
2023-01-10T12:42:16.220Z,87.32
2023-01-10T12:43:16.506Z,87.52
2023-01-10T12:44:16.327Z,87.42
2023-01-10T12:45:34.652Z,87.42
2023-01-10T12:46:29.573Z,87.63
2023-01-10T12:47:16.622Z,87.22
2023-01-10T12:48:16.060Z,87.32
2023-01-10T12:49:16.372Z,87.12
2023-01-10T12:50:16.212Z,87.12
2023-01-10T12:51:15.200Z,86.80
2023-01-10T12:52:15.792Z,86.70